Time;durP1;ratioP1;P1;durP2;ratioP2;P2;SDS_P1;SDS_P2;PMS_P1;PMS_P2;Temp;Humidity;BMP_temperature;BMP_pressure;BME280_temperature;BME280_humidity;BME280_pressure;Samples;Min_cycle;Max_cycle;Signal;HPM_P1;HPM_P2
2023/10/21 00:02:23;;;;;;;6.68;5.18;;;;;;;;;;5007642;28;20036;-87
2023/10/21 00:04:49;;;;;;;6.07;4.63;;;;;;;;;;4999841;28;20108;-86
2023/10/21 00:07:15;;;;;;;8.80;5.57;;;;;;;;;;5002471;28;20906;-86
2023/10/21 00:09:41;;;;;;;7.28;5.38;;;;;;;;;;5032759;28;20030;-87
2023/10/21 00:12:08;;;;;;;7.97;5.57;;;;;;;;;;5037405;28;20017;-88
2023/10/21 00:14:35;;;;;;;6.45;5.72;;;;;;;;;;5024595;28;20057;-86
2023/10/21 00:17:01;;;;;;;7.93;5.60;;;;;;;;;;5043601;28;20032;-89
2023/10/21 00:19:27;;;;;;;10.05;5.93;;;;;;;;;;5005013;28;20102;-86
2023/10/21 00:21:53;;;;;;;9.43;6.65;;;;;;;;;;5039107;28;20133;-87
2023/10/21 00:24:20;;;;;;;9.35;5.82;;;;;;;;;;5042694;28;20045;-87
2023/10/21 00:26:47;;;;;;;7.43;5.47;;;;;;;;;;5020672;28;20453;-89
2023/10/21 00:29:14;;;;;;;6.05;5.07;;;;;;;;;;5018542;28;20266;-86
2023/10/21 00:31:41;;;;;;;8.32;5.72;;;;;;;;;;5028392;28;20466;-89
2023/10/21 00:34:07;;;;;;;10.43;6.45;;;;;;;;;;5003405;28;20038;-87
2023/10/21 00:36:33;;;;;;;5.10;4.45;;;;;;;;;;5010637;28;20045;-87
2023/10/21 00:39:01;;;;;;;6.85;6.10;;;;;;;;;;5032646;28;20033;-86
2023/10/21 00:41:27;;;;;;;7.55;5.07;;;;;;;;;;5047650;28;20038;-88
2023/10/21 00:43:53;;;;;;;6.78;4.68;;;;;;;;;;5023927;28;20050;-88
2023/10/21 00:46:20;;;;;;;10.43;5.75;;;;;;;;;;5022503;28;20489;-87
2023/10/21 00:48:46;;;;;;;9.13;5.82;;;;;;;;;;5037053;28;20033;-88
2023/10/21 00:51:12;;;;;;;6.60;4.00;;;;;;;;;;5039445;28;20033;-87
2023/10/21 00:53:39;;;;;;;7.50;5.05;;;;;;;;;;5021693;28;20033;-89
2023/10/21 00:56:06;;;;;;;9.73;5.25;;;;;;;;;;5040617;28;20057;-86
2023/10/21 00:58:32;;;;;;;9.75;5.90;;;;;;;;;;5049561;28;20105;-86
2023/10/21 01:01:02;;;;;;;8.65;6.00;;;;;;;;;;5055638;28;20013;-84
2023/10/21 01:03:28;;;;;;;9.63;4.82;;;;;;;;;;5023775;28;20040;-87
2023/10/21 01:05:57;;;;;;;7.93;4.97;;;;;;;;;;5040106;28;20348;-87
2023/10/21 01:08:23;;;;;;;7.45;6.43;;;;;;;;;;5018416;28;20030;-87
2023/10/21 01:10:49;;;;;;;11.20;5.93;;;;;;;;;;5035869;28;20013;-86
2023/10/21 01:13:16;;;;;;;8.90;6.30;;;;;;;;;;5038844;28;20032;-85
2023/10/21 01:15:42;;;;;;;8.50;6.22;;;;;;;;;;5036117;28;20042;-84
2023/10/21 01:18:08;;;;;;;7.00;4.83;;;;;;;;;;5050112;28;20017;-84
2023/10/21 01:20:39;;;;;;;4.63;3.78;;;;;;;;;;5030421;28;20116;-85
2023/10/21 01:23:06;;;;;;;8.73;5.63;;;;;;;;;;5036602;28;20060;-84
2023/10/21 01:25:32;;;;;;;6.82;5.03;;;;;;;;;;5030851;28;20021;-84
2023/10/21 01:27:58;;;;;;;8.40;5.55;;;;;;;;;;5016966;28;20111;-84
2023/10/21 01:30:25;;;;;;;10.38;6.03;;;;;;;;;;5018175;28;20028;-84
2023/10/21 01:32:51;;;;;;;7.00;5.88;;;;;;;;;;5025249;28;20034;-84
2023/10/21 01:35:18;;;;;;;9.18;6.57;;;;;;;;;;5012985;28;20018;-85
2023/10/21 01:37:45;;;;;;;9.68;7.25;;;;;;;;;;5023708;28;20105;-84
2023/10/21 01:40:11;;;;;;;7.50;5.80;;;;;;;;;;4997184;28;20026;-84
2023/10/21 01:42:41;;;;;;;8.20;5.75;;;;;;;;;;5030960;28;20029;-83
2023/10/21 01:45:07;;;;;;;7.30;5.20;;;;;;;;;;5026104;28;20634;-84
2023/10/21 01:47:34;;;;;;;6.23;5.07;;;;;;;;;;5026101;28;20020;-85
2023/10/21 01:50:00;;;;;;;8.55;4.22;;;;;;;;;;5016941;28;20022;-84
2023/10/21 01:52:26;;;;;;;8.43;6.70;;;;;;;;;;5034192;28;20124;-85
2023/10/21 01:54:55;;;;;;;7.95;5.07;;;;;;;;;;5034141;28;20056;-84
2023/10/21 01:57:22;;;;;;;9.45;5.88;;;;;;;;;;5034759;28;20030;-83
2023/10/21 01:59:49;;;;;;;8.27;5.30;;;;;;;;;;5046715;28;20021;-82
2023/10/21 02:02:15;;;;;;;9.63;6.60;;;;;;;;;;5009227;28;20118;-84
2023/10/21 02:04:42;;;;;;;10.18;6.50;;;;;;;;;;5004865;28;20053;-83
2023/10/21 02:07:09;;;;;;;10.57;5.75;;;;;;;;;;5040571;28;20066;-83
2023/10/21 02:09:36;;;;;;;13.32;6.88;;;;;;;;;;5027516;28;20073;-83
2023/10/21 02:12:03;;;;;;;9.98;6.68;;;;;;;;;;5036435;28;20021;-83
2023/10/21 02:14:29;;;;;;;9.93;6.32;;;;;;;;;;5048195;28;20058;-83
2023/10/21 02:16:56;;;;;;;7.88;5.38;;;;;;;;;;5022915;28;20087;-83
2023/10/21 02:19:24;;;;;;;9.23;6.55;;;;;;;;;;5034390;28;20456;-83
2023/10/21 02:21:50;;;;;;;9.38;6.07;;;;;;;;;;5026204;28;20037;-84
2023/10/21 02:24:16;;;;;;;8.60;6.63;;;;;;;;;;5042347;28;20097;-84
2023/10/21 02:26:43;;;;;;;8.50;5.50;;;;;;;;;;5049106;28;20060;-83
2023/10/21 02:29:09;;;;;;;12.18;7.45;;;;;;;;;;5036126;28;20382;-84
2023/10/21 02:31:35;;;;;;;9.90;6.75;;;;;;;;;;5033729;28;20029;-83
2023/10/21 02:34:01;;;;;;;9.95;6.65;;;;;;;;;;5033283;28;20056;-83
2023/10/21 02:36:27;;;;;;;8.90;6.97;;;;;;;;;;5025885;28;20052;-84
2023/10/21 02:38:53;;;;;;;8.50;6.25;;;;;;;;;;5000757;28;20041;-83
2023/10/21 02:41:20;;;;;;;10.88;7.43;;;;;;;;;;5019052;28;20029;-85
2023/10/21 02:43:46;;;;;;;8.82;6.03;;;;;;;;;;5033183;28;20036;-84
2023/10/21 02:46:13;;;;;;;13.45;7.10;;;;;;;;;;5033154;28;20032;-84
2023/10/21 02:48:39;;;;;;;14.02;7.28;;;;;;;;;;5033237;28;20025;-84
2023/10/21 02:51:12;;;;;;;9.40;6.15;;;;;;;;;;5047184;28;20056;-85
2023/10/21 02:53:39;;;;;;;8.30;6.18;;;;;;;;;;5029162;28;20097;-84
2023/10/21 02:56:06;;;;;;;10.38;7.22;;;;;;;;;;5033025;28;20441;-84
2023/10/21 02:58:33;;;;;;;10.68;7.25;;;;;;;;;;5033413;28;20064;-87
2023/10/21 03:01:01;;;;;;;9.73;7.60;;;;;;;;;;5015553;28;20026;-86
2023/10/21 03:03:27;;;;;;;6.88;5.78;;;;;;;;;;5015897;28;20029;-87
2023/10/21 03:05:53;;;;;;;6.68;5.10;;;;;;;;;;5015922;28;20021;-86
2023/10/21 03:08:19;;;;;;;9.98;6.93;;;;;;;;;;5031285;28;20097;-85
2023/10/21 03:10:45;;;;;;;7.97;5.40;;;;;;;;;;5035431;28;20033;-86
2023/10/21 03:13:11;;;;;;;8.02;5.70;;;;;;;;;;5031562;28;20048;-86
2023/10/21 03:15:37;;;;;;;7.68;5.57;;;;;;;;;;5021475;28;20056;-85
2023/10/21 03:18:04;;;;;;;8.73;6.15;;;;;;;;;;5033006;28;20025;-83
2023/10/21 03:20:33;;;;;;;6.72;5.93;;;;;;;;;;5033881;28;20387;-83
2023/10/21 03:22:59;;;;;;;9.60;6.90;;;;;;;;;;5033365;28;20033;-84
2023/10/21 03:25:25;;;;;;;8.38;6.18;;;;;;;;;;5022968;28;20025;-82
2023/10/21 03:27:52;;;;;;;8.15;6.68;;;;;;;;;;5032902;28;20029;-84
2023/10/21 03:30:18;;;;;;;6.03;4.47;;;;;;;;;;5015024;28;20017;-84
2023/10/21 03:32:44;;;;;;;7.55;4.88;;;;;;;;;;5015715;28;20075;-84
2023/10/21 03:35:10;;;;;;;9.90;5.88;;;;;;;;;;5032798;28;20565;-84
2023/10/21 03:37:36;;;;;;;7.80;5.90;;;;;;;;;;5016038;28;20034;-83
2023/10/21 03:40:10;;;;;;;6.78;5.38;;;;;;;;;;5013268;28;20087;-84
2023/10/21 03:42:37;;;;;;;9.02;6.93;;;;;;;;;;5049884;28;20127;-83
2023/10/21 03:45:04;;;;;;;8.52;7.13;;;;;;;;;;5032907;28;20021;-83
2023/10/21 03:47:30;;;;;;;;;;;;;;;;;;5054496;28;20359;-83
2023/10/21 03:49:56;;;;;;;13.10;8.55;;;;;;;;;;5065014;28;19913;-84
2023/10/21 03:52:22;;;;;;;8.25;6.53;;;;;;;;;;5026957;28;20022;-84
2023/10/21 03:54:48;;;;;;;10.15;7.55;;;;;;;;;;5035341;28;20029;-84
2023/10/21 03:57:15;;;;;;;8.38;7.43;;;;;;;;;;5067733;28;20025;-84
2023/10/21 03:59:41;;;;;;;9.50;6.75;;;;;;;;;;5041814;28;20378;-84
2023/10/21 04:02:07;;;;;;;8.23;6.93;;;;;;;;;;5036576;28;20025;-83
2023/10/21 04:04:33;;;;;;;9.43;7.32;;;;;;;;;;5036654;28;20014;-85
2023/10/21 04:06:59;;;;;;;11.27;6.65;;;;;;;;;;5037750;28;20017;-84
2023/10/21 04:09:26;;;;;;;9.05;7.00;;;;;;;;;;5039064;28;20152;-82
2023/10/21 04:11:53;;;;;;;9.85;7.10;;;;;;;;;;5047185;28;20021;-83
2023/10/21 04:14:19;;;;;;;11.27;6.28;;;;;;;;;;5047945;28;20041;-84
2023/10/21 04:16:45;;;;;;;9.02;6.47;;;;;;;;;;5038481;28;20022;-84
2023/10/21 04:19:12;;;;;;;7.70;5.80;;;;;;;;;;5036097;28;20490;-84
2023/10/21 04:21:38;;;;;;;9.55;6.32;;;;;;;;;;5020765;28;20113;-84
2023/10/21 04:24:04;;;;;;;7.43;5.75;;;;;;;;;;5040925;28;20393;-82
2023/10/21 04:26:30;;;;;;;8.40;6.00;;;;;;;;;;5034434;28;20411;-83
2023/10/21 04:28:56;;;;;;;8.63;5.93;;;;;;;;;;5038577;28;20021;-83
2023/10/21 04:31:22;;;;;;;7.28;5.97;;;;;;;;;;5018604;28;20486;-84
2023/10/21 04:33:49;;;;;;;9.90;7.03;;;;;;;;;;5035537;28;20029;-84
2023/10/21 04:36:18;;;;;;;7.70;5.38;;;;;;;;;;5030063;28;20348;-83
2023/10/21 04:38:45;;;;;;;8.13;6.45;;;;;;;;;;5010747;28;20034;-84
2023/10/21 04:41:11;;;;;;;9.88;6.70;;;;;;;;;;5035546;28;20370;-83
2023/10/21 04:43:37;;;;;;;7.90;5.13;;;;;;;;;;5027131;28;20033;-82
2023/10/21 04:46:03;;;;;;;5.72;5.07;;;;;;;;;;5017813;28;20025;-85
2023/10/21 04:48:29;;;;;;;5.47;4.72;;;;;;;;;;5036907;28;20083;-83
2023/10/21 04:50:55;;;;;;;10.20;6.22;;;;;;;;;;5035764;28;20029;-83
2023/10/21 04:53:21;;;;;;;7.15;5.45;;;;;;;;;;5017503;28;20030;-84
2023/10/21 04:55:49;;;;;;;7.60;5.63;;;;;;;;;;5035508;28;20028;-84
2023/10/21 04:58:15;;;;;;;6.38;4.72;;;;;;;;;;5013573;28;20053;-84
2023/10/21 05:00:42;;;;;;;6.45;5.05;;;;;;;;;;5035427;28;20031;-82
2023/10/21 05:03:08;;;;;;;6.47;4.53;;;;;;;;;;5023284;28;20025;-84
2023/10/21 05:05:34;;;;;;;5.68;4.75;;;;;;;;;;5045577;28;20026;-84
2023/10/21 05:08:02;;;;;;;5.27;4.27;;;;;;;;;;5017330;28;20025;-82
2023/10/21 05:10:28;;;;;;;;;;;;;;;;;;5035720;28;20382;-83
2023/10/21 05:12:55;;;;;;;7.55;4.22;;;;;;;;;;5021600;28;19906;-85
2023/10/21 05:15:23;;;;;;;6.18;4.60;;;;;;;;;;5034619;28;20081;-85
2023/10/21 05:17:49;;;;;;;3.25;2.65;;;;;;;;;;5034884;28;20052;-85
2023/10/21 05:20:15;;;;;;;7.50;4.47;;;;;;;;;;5027804;28;20030;-83
2023/10/21 05:22:41;;;;;;;6.95;5.30;;;;;;;;;;5025608;28;20113;-84
2023/10/21 05:25:11;;;;;;;10.45;6.38;;;;;;;;;;5031341;28;20018;-84
2023/10/21 05:27:37;;;;;;;7.93;4.85;;;;;;;;;;5017070;28;20049;-84
2023/10/21 05:30:04;;;;;;;5.15;4.35;;;;;;;;;;5034550;28;20025;-84
2023/10/21 05:32:30;;;;;;;8.77;5.67;;;;;;;;;;5035033;28;20032;-85
2023/10/21 05:34:56;;;;;;;8.23;4.85;;;;;;;;;;5017075;28;20281;-85
2023/10/21 05:37:22;;;;;;;7.15;4.47;;;;;;;;;;5019678;28;20105;-85
2023/10/21 05:39:49;;;;;;;5.90;4.38;;;;;;;;;;4997616;28;20018;-84
2023/10/21 05:42:15;;;;;;;11.48;5.18;;;;;;;;;;5028834;28;20107;-85
2023/10/21 05:44:41;;;;;;;6.20;4.35;;;;;;;;;;5062513;28;20040;-84
2023/10/21 05:47:09;;;;;;;7.38;5.95;;;;;;;;;;5035881;28;20030;-84
2023/10/21 05:49:35;;;;;;;8.15;5.53;;;;;;;;;;5028840;28;20045;-84
2023/10/21 05:52:01;;;;;;;7.65;5.18;;;;;;;;;;5007296;28;20567;-84
2023/10/21 05:54:31;;;;;;;7.43;5.30;;;;;;;;;;5035724;28;20025;-84
2023/10/21 05:56:57;;;;;;;6.97;5.50;;;;;;;;;;5027912;28;20017;-85
2023/10/21 05:59:23;;;;;;;7.00;5.03;;;;;;;;;;5034811;28;20364;-85
2023/10/21 06:01:49;;;;;;;6.88;5.60;;;;;;;;;;5022243;28;20386;-84
2023/10/21 06:04:15;;;;;;;6.93;5.85;;;;;;;;;;5035129;28;20079;-84
2023/10/21 06:06:41;;;;;;;7.78;5.35;;;;;;;;;;5034443;28;20360;-84
2023/10/21 06:09:09;;;;;;;10.13;5.15;;;;;;;;;;5034669;28;20048;-84
2023/10/21 06:11:36;;;;;;;7.15;4.88;;;;;;;;;;5023488;28;20034;-85
2023/10/21 06:14:02;;;;;;;6.70;5.45;;;;;;;;;;5021055;28;20018;-84
2023/10/21 06:16:29;;;;;;;12.63;6.43;;;;;;;;;;5002886;28;20372;-85
2023/10/21 06:18:56;;;;;;;8.93;5.40;;;;;;;;;;5000940;28;20018;-85
2023/10/21 06:21:22;;;;;;;9.52;6.38;;;;;;;;;;5024055;28;20136;-86
2023/10/21 06:23:48;;;;;;;13.32;7.97;;;;;;;;;;5002764;28;20057;-86
2023/10/21 06:26:14;;;;;;;10.10;8.38;;;;;;;;;;5021695;28;20032;-84
2023/10/21 06:28:41;;;;;;;11.80;6.57;;;;;;;;;;5016802;28;20037;-84
2023/10/21 06:31:07;;;;;;;9.45;6.28;;;;;;;;;;5014183;28;20029;-85
2023/10/21 06:33:35;;;;;;;8.20;6.10;;;;;;;;;;5015051;28;20047;-84
2023/10/21 06:36:01;;;;;;;7.95;5.70;;;;;;;;;;5027951;28;20018;-85
2023/10/21 06:38:27;;;;;;;12.45;5.47;;;;;;;;;;5006093;28;20716;-85
2023/10/21 06:40:53;;;;;;;8.88;5.80;;;;;;;;;;5021775;28;20029;-84
2023/10/21 06:43:20;;;;;;;7.85;5.85;;;;;;;;;;5045213;28;20191;-84
2023/10/21 06:45:46;;;;;;;6.75;5.60;;;;;;;;;;5019509;28;20100;-84
2023/10/21 06:48:12;;;;;;;10.18;6.22;;;;;;;;;;5040573;28;20048;-84
2023/10/21 06:50:38;;;;;;;6.57;5.60;;;;;;;;;;5026136;28;20474;-83
2023/10/21 06:53:05;;;;;;;7.18;4.90;;;;;;;;;;5021841;28;20028;-84
2023/10/21 06:55:40;;;;;;;9.35;6.38;;;;;;;;;;5039761;28;20085;-84
2023/10/21 06:58:07;;;;;;;7.50;6.35;;;;;;;;;;5038118;28;20021;-85
2023/10/21 07:00:33;;;;;;;12.43;7.03;;;;;;;;;;5043779;28;20544;-84
2023/10/21 07:02:59;;;;;;;9.07;7.20;;;;;;;;;;5020807;28;20401;-84
2023/10/21 07:05:25;;;;;;;8.30;5.93;;;;;;;;;;5044561;28;20051;-85
2023/10/21 07:07:51;;;;;;;7.78;6.07;;;;;;;;;;5018867;28;20030;-83
2023/10/21 07:10:20;;;;;;;8.23;5.85;;;;;;;;;;5033073;28;20025;-86
2023/10/21 07:12:46;;;;;;;9.68;6.38;;;;;;;;;;5045856;28;20133;-86
2023/10/21 07:15:13;;;;;;;7.32;5.75;;;;;;;;;;5052418;28;20094;-85
2023/10/21 07:17:39;;;;;;;7.25;5.10;;;;;;;;;;5023558;28;20044;-85
2023/10/21 07:20:05;;;;;;;8.55;6.05;;;;;;;;;;5032011;28;20363;-86
2023/10/21 07:22:32;;;;;;;7.53;5.80;;;;;;;;;;5004131;28;20044;-86
2023/10/21 07:24:58;;;;;;;7.00;5.32;;;;;;;;;;5028165;28;20049;-85
2023/10/21 07:27:26;;;;;;;9.77;5.50;;;;;;;;;;5010558;28;20092;-86
2023/10/21 07:29:52;;;;;;;7.57;4.97;;;;;;;;;;5043386;28;20025;-85
2023/10/21 07:32:18;;;;;;;8.05;5.82;;;;;;;;;;5011735;28;20036;-85
2023/10/21 07:34:44;;;;;;;8.82;6.38;;;;;;;;;;5045482;28;20028;-85
2023/10/21 07:37:11;;;;;;;9.48;7.30;;;;;;;;;;5050897;28;20040;-83
2023/10/21 07:39:37;;;;;;;9.15;6.25;;;;;;;;;;5037464;28;20028;-87
2023/10/21 07:42:04;;;;;;;6.65;5.97;;;;;;;;;;5037869;28;20029;-88
2023/10/21 07:44:30;;;;;;;7.40;5.57;;;;;;;;;;5039457;28;20049;-86
2023/10/21 07:46:56;;;;;;;7.07;4.93;;;;;;;;;;5026768;28;20032;-85
2023/10/21 07:49:23;;;;;;;6.78;4.72;;;;;;;;;;5009099;28;20036;-88
2023/10/21 07:51:49;;;;;;;6.47;5.50;;;;;;;;;;5044500;28;20029;-88
2023/10/21 07:54:15;;;;;;;10.68;5.72;;;;;;;;;;5069989;28;20029;-88
2023/10/21 07:56:45;;;;;;;6.95;4.63;;;;;;;;;;5048584;28;20105;-88
2023/10/21 07:59:11;;;;;;;6.80;5.43;;;;;;;;;;5052508;28;20033;-89
2023/10/21 08:01:38;;;;;;;8.60;5.70;;;;;;;;;;5034445;28;20037;-87
2023/10/21 08:04:04;;;;;;;8.05;5.82;;;;;;;;;;5022285;28;20080;-87
2023/10/21 08:06:31;;;;;;;5.78;4.65;;;;;;;;;;5014210;28;20031;-87
2023/10/21 08:08:57;;;;;;;9.40;5.20;;;;;;;;;;5023233;28;20033;-86
2023/10/21 08:11:24;;;;;;;8.02;5.43;;;;;;;;;;5030198;28;20028;-86
2023/10/21 08:13:50;;;;;;;7.72;5.35;;;;;;;;;;5029950;28;20056;-85
2023/10/21 08:16:16;;;;;;;9.75;5.10;;;;;;;;;;5013475;28;20471;-88
2023/10/21 08:18:43;;;;;;;8.73;5.00;;;;;;;;;;5019558;28;20048;-86
2023/10/21 08:21:09;;;;;;;10.70;6.17;;;;;;;;;;5029947;28;20049;-88
2023/10/21 08:23:35;;;;;;;11.13;5.68;;;;;;;;;;5017194;28;20382;-87
2023/10/21 08:26:01;;;;;;;6.40;5.45;;;;;;;;;;5033652;28;20112;-87
2023/10/21 08:28:28;;;;;;;10.10;5.65;;;;;;;;;;5045732;28;20006;-86
2023/10/21 08:30:54;;;;;;;10.23;5.78;;;;;;;;;;5045235;28;20470;-86
2023/10/21 08:33:20;;;;;;;7.00;5.63;;;;;;;;;;5064909;28;20521;-87
2023/10/21 08:35:46;;;;;;;8.95;5.65;;;;;;;;;;5014708;28;20033;-87
2023/10/21 08:38:13;;;;;;;10.45;5.75;;;;;;;;;;5022102;28;20057;-87
2023/10/21 08:40:41;;;;;;;7.50;4.72;;;;;;;;;;5035259;28;20035;-86
2023/10/21 08:43:08;;;;;;;;;;;;;;;;;;5038970;28;20382;-88
2023/10/21 08:45:35;;;;;;;7.80;4.85;;;;;;;;;;5041690;28;19905;-86
2023/10/21 08:48:03;;;;;;;8.57;5.20;;;;;;;;;;5019386;28;20072;-87
2023/10/21 08:50:30;;;;;;;6.50;5.07;;;;;;;;;;5036929;28;20040;-86
2023/10/21 08:52:58;;;;;;;7.95;6.57;;;;;;;;;;5002640;28;20036;-87
2023/10/21 08:55:25;;;;;;;7.65;5.63;;;;;;;;;;5029075;28;20033;-87
2023/10/21 08:57:53;;;;;;;5.03;4.07;;;;;;;;;;5036741;28;20033;-87
2023/10/21 09:00:19;;;;;;;7.07;5.97;;;;;;;;;;5044968;28;20027;-88
2023/10/21 09:02:45;;;;;;;8.50;5.32;;;;;;;;;;5045633;28;20067;-87
2023/10/21 09:05:12;;;;;;;10.82;7.22;;;;;;;;;;5019043;28;20101;-87
2023/10/21 09:07:49;;;;;;;7.18;5.40;;;;;;;;;;5023937;28;20105;-88
2023/10/21 09:10:16;;;;;;;6.43;5.72;;;;;;;;;;5022447;28;20033;-86
2023/10/21 09:12:42;;;;;;;7.60;5.43;;;;;;;;;;5015802;28;20026;-88
2023/10/21 09:15:09;;;;;;;8.75;4.85;;;;;;;;;;5015879;28;20050;-86
2023/10/21 09:17:45;;;;;;;7.40;5.72;;;;;;;;;;4999604;28;20388;-88
2023/10/21 09:20:15;;;;;;;10.73;6.43;;;;;;;;;;5023819;28;20026;-87
2023/10/21 09:22:43;;;;;;;8.38;5.68;;;;;;;;;;5012438;28;20046;-89
2023/10/21 09:25:14;;;;;;;7.00;5.90;;;;;;;;;;5017769;28;20460;-87
2023/10/21 09:27:41;;;;;;;14.02;5.97;;;;;;;;;;5017099;28;20021;-91
2023/10/21 09:30:13;;;;;;;8.73;5.07;;;;;;;;;;4999240;28;20021;-88
2023/10/21 09:32:39;;;;;;;11.48;6.10;;;;;;;;;;5001039;28;20037;-86
2023/10/21 09:35:21;;;;;;;6.68;4.85;;;;;;;;;;5027053;28;20025;-88
2023/10/21 09:37:50;;;;;;;7.35;5.45;;;;;;;;;;5020521;28;20021;-90
2023/10/21 09:40:17;;;;;;;7.47;5.97;;;;;;;;;;5037377;28;20025;-91
2023/10/21 09:42:43;;;;;;;9.05;5.55;;;;;;;;;;5020155;28;20072;-87
2023/10/21 09:45:10;;;;;;;5.75;5.15;;;;;;;;;;5036327;28;20020;-89
2023/10/21 09:47:43;;;;;;;5.88;4.57;;;;;;;;;;5036543;28;20040;-90
2023/10/21 09:50:14;;;;;;;6.35;4.78;;;;;;;;;;5022932;28;20030;-89
2023/10/21 09:52:46;;;;;;;9.95;7.05;;;;;;;;;;5050616;28;20029;-89
2023/10/21 09:55:13;;;;;;;9.82;6.35;;;;;;;;;;5037641;28;20028;-89
2023/10/21 09:57:44;;;;;;;5.30;4.60;;;;;;;;;;5027044;28;20029;-89
2023/10/21 10:00:10;;;;;;;4.93;3.97;;;;;;;;;;5035241;28;20041;-90
2023/10/21 10:02:37;;;;;;;7.47;4.93;;;;;;;;;;5028607;28;20064;-90
2023/10/21 10:05:09;;;;;;;8.25;4.70;;;;;;;;;;5018383;28;20620;-90
2023/10/21 10:07:36;;;;;;;5.97;4.32;;;;;;;;;;4997621;28;20029;-82
2023/10/21 10:10:05;;;;;;;6.43;4.95;;;;;;;;;;5021463;28;20025;-88
2023/10/21 10:12:35;;;;;;;7.13;4.57;;;;;;;;;;4999871;28;20029;-90
2023/10/21 10:15:21;;;;;;;7.65;5.60;;;;;;;;;;5016463;28;20584;-89
2023/10/21 10:17:50;;;;;;;8.02;6.05;;;;;;;;;;4997764;28;20029;-85
2023/10/21 10:20:22;;;;;;;7.90;5.85;;;;;;;;;;4997365;28;20018;-88
2023/10/21 10:22:49;;;;;;;12.00;6.85;;;;;;;;;;5016842;28;20104;-88
2023/10/21 10:25:24;;;;;;;14.60;7.22;;;;;;;;;;5000043;28;20044;-89
2023/10/21 10:27:56;;;;;;;9.10;5.40;;;;;;;;;;5019451;28;20125;-90
2023/10/21 10:30:22;;;;;;;9.52;6.10;;;;;;;;;;5019550;28;20014;-87
2023/10/21 10:32:52;;;;;;;8.10;5.63;;;;;;;;;;5015633;28;20033;-87
2023/10/21 10:35:31;;;;;;;8.70;4.88;;;;;;;;;;4998814;28;20112;-90
2023/10/21 10:37:59;;;;;;;8.18;5.00;;;;;;;;;;5037599;28;20032;-95
2023/10/21 10:40:34;;;;;;;8.32;6.28;;;;;;;;;;5036878;28;20030;-92
2023/10/21 10:43:00;;;;;;;7.50;6.50;;;;;;;;;;5035476;28;20061;-94
2023/10/21 10:45:28;;;;;;;9.13;5.63;;;;;;;;;;5024583;28;20025;-95
2023/10/21 10:47:59;;;;;;;6.35;4.80;;;;;;;;;;5035880;28;20013;-92
2023/10/21 10:50:26;;;;;;;9.45;6.05;;;;;;;;;;5039318;28;20030;-96
2023/10/21 10:52:55;;;;;;;7.22;4.15;;;;;;;;;;5013596;28;20030;-92
2023/10/21 10:55:22;;;;;;;5.95;4.55;;;;;;;;;;5027809;28;20084;-96
2023/10/21 10:57:51;;;;;;;4.50;3.50;;;;;;;;;;5008743;28;20031;-93
2023/10/21 11:00:25;;;;;;;6.47;3.90;;;;;;;;;;5017944;28;20018;-96
2023/10/21 11:02:52;;;;;;;5.65;3.97;;;;;;;;;;4996683;28;20041;-93
2023/10/21 11:05:21;;;;;;;6.80;4.60;;;;;;;;;;5029709;28;20378;-91
2023/10/21 11:07:50;;;;;;;11.50;5.93;;;;;;;;;;5020864;28;20037;-91
2023/10/21 11:10:24;;;;;;;7.75;5.30;;;;;;;;;;5041942;28;20418;-92
2023/10/21 11:12:50;;;;;;;7.00;4.53;;;;;;;;;;5016966;28;20555;-94
2023/10/21 11:15:17;;;;;;;8.45;5.28;;;;;;;;;;5026550;28;20499;-92
2023/10/21 11:17:47;;;;;;;5.05;3.58;;;;;;;;;;5009818;28;20036;-91
2023/10/21 11:20:13;;;;;;;3.50;2.88;;;;;;;;;;5017440;28;20014;-92
2023/10/21 11:22:40;;;;;;;5.07;3.30;;;;;;;;;;5012059;28;20038;-93
2023/10/21 11:25:07;;;;;;;6.72;3.97;;;;;;;;;;5017422;28;20475;-85
2023/10/21 11:27:33;;;;;;;6.22;3.67;;;;;;;;;;5019695;28;20075;-85
2023/10/21 11:30:00;;;;;;;4.30;3.40;;;;;;;;;;5014142;28;20018;-86
2023/10/21 11:32:30;;;;;;;5.75;3.38;;;;;;;;;;5017968;28;20040;-86
2023/10/21 11:35:01;;;;;;;7.57;4.43;;;;;;;;;;5037256;28;20057;-86
2023/10/21 11:37:27;;;;;;;6.18;3.90;;;;;;;;;;5032971;28;20025;-86
2023/10/21 11:39:55;;;;;;;9.15;4.20;;;;;;;;;;5033589;28;20022;-85
2023/10/21 11:42:21;;;;;;;6.47;4.80;;;;;;;;;;5035651;28;20039;-87
2023/10/21 11:44:58;;;;;;;5.13;3.97;;;;;;;;;;5019154;28;20101;-89
2023/10/21 11:47:28;;;;;;;5.77;4.17;;;;;;;;;;5013743;28;20026;-85
2023/10/21 11:49:54;;;;;;;5.63;4.45;;;;;;;;;;5012779;28;20290;-85
2023/10/21 11:52:21;;;;;;;9.35;5.75;;;;;;;;;;5013276;28;20022;-86
2023/10/21 11:55:20;;;;;;;9.67;5.50;;;;;;;;;;5014865;28;20033;-86
2023/10/21 11:58:27;;;;;;;6.75;4.75;;;;;;;;;;5018602;28;20097;-87
2023/10/21 12:40:37;;;;;;;10.73;5.07;;;;;;;;;;5043907;28;20032;-85
2023/10/21 12:42:45;;;;;;;7.68;5.85;;;;;;;;;;5025013;28;20041;-84
2023/10/21 12:45:18;;;;;;;5.97;4.57;;;;;;;;;;4998552;28;20395;-84
2023/10/21 12:47:47;;;;;;;8.32;5.82;;;;;;;;;;5018512;28;20108;-84
2023/10/21 12:50:14;;;;;;;6.15;4.55;;;;;;;;;;5035458;28;20022;-84
2023/10/21 12:52:41;;;;;;;7.50;4.57;;;;;;;;;;5018800;28;20107;-83
2023/10/21 12:55:10;;;;;;;4.93;4.40;;;;;;;;;;5048524;28;20079;-85
2023/10/21 12:57:43;;;;;;;20.13;13.00;;;;;;;;;;5033451;28;20107;-86
2023/10/21 13:00:09;;;;;;;6.82;5.28;;;;;;;;;;5028904;28;20064;-84
2023/10/21 13:02:37;;;;;;;7.50;5.00;;;;;;;;;;5040002;28;20399;-83
2023/10/21 13:05:03;;;;;;;5.78;4.43;;;;;;;;;;5036198;28;20467;-85
2023/10/21 13:07:33;;;;;;;6.65;5.15;;;;;;;;;;5031178;28;20033;-86
2023/10/21 13:09:59;;;;;;;4.30;3.90;;;;;;;;;;5023900;28;20025;-85
2023/10/21 13:12:25;;;;;;;6.30;4.20;;;;;;;;;;5036147;28;20104;-87
2023/10/21 13:14:54;;;;;;;6.95;5.10;;;;;;;;;;5023433;28;20061;-85
2023/10/21 13:17:21;;;;;;;9.75;5.15;;;;;;;;;;5046205;28;20062;-85
2023/10/21 13:19:48;;;;;;;7.35;5.35;;;;;;;;;;5063269;28;20017;-84
2023/10/21 13:22:14;;;;;;;9.20;5.70;;;;;;;;;;5038242;28;20041;-84
2023/10/21 13:24:40;;;;;;;9.15;5.93;;;;;;;;;;5024229;28;20049;-85
2023/10/21 13:27:07;;;;;;;9.52;6.90;;;;;;;;;;5032325;28;20029;-85
2023/10/21 13:29:33;;;;;;;8.80;5.90;;;;;;;;;;5035003;28;20022;-83
2023/10/21 13:32:00;;;;;;;9.07;5.93;;;;;;;;;;5030707;28;20033;-84
2023/10/21 13:34:26;;;;;;;11.55;6.80;;;;;;;;;;5034815;28;20014;-86
2023/10/21 13:36:52;;;;;;;9.65;7.10;;;;;;;;;;5001983;28;20025;-86
2023/10/21 13:39:18;;;;;;;10.38;7.35;;;;;;;;;;5036181;28;20147;-86
2023/10/21 13:41:48;;;;;;;13.75;7.30;;;;;;;;;;5038250;28;20052;-85
2023/10/21 13:44:15;;;;;;;8.32;7.28;;;;;;;;;;5036772;28;20051;-84
2023/10/21 13:46:41;;;;;;;13.88;7.53;;;;;;;;;;5034589;28;20022;-85
2023/10/21 13:49:13;;;;;;;7.95;5.53;;;;;;;;;;5016613;28;20025;-85
2023/10/21 13:51:40;;;;;;;8.98;4.75;;;;;;;;;;5034630;28;20108;-85
2023/10/21 13:54:10;;;;;;;7.45;4.88;;;;;;;;;;5036683;28;20013;-86
2023/10/21 13:56:37;;;;;;;7.45;5.22;;;;;;;;;;5018784;28;20037;-85
2023/10/21 13:59:06;;;;;;;6.32;4.28;;;;;;;;;;5035270;28;20022;-84
2023/10/21 14:01:32;;;;;;;7.05;5.05;;;;;;;;;;5033556;28;20113;-82
2023/10/21 14:03:58;;;;;;;6.13;4.32;;;;;;;;;;5033705;28;20034;-81
2023/10/21 14:06:24;;;;;;;7.00;5.00;;;;;;;;;;5033419;28;20025;-82
2023/10/21 14:08:51;;;;;;;5.78;4.22;;;;;;;;;;5029241;28;20109;-84
2023/10/21 14:11:18;;;;;;;6.65;4.75;;;;;;;;;;5014497;28;20022;-84
2023/10/21 14:13:46;;;;;;;11.88;6.07;;;;;;;;;;5015349;28;20029;-84
2023/10/21 14:16:12;;;;;;;8.02;5.78;;;;;;;;;;5021979;28;20026;-83
2023/10/21 14:18:42;;;;;;;6.68;4.95;;;;;;;;;;5015430;28;20368;-83
2023/10/21 14:21:09;;;;;;;6.40;4.55;;;;;;;;;;5015569;28;20029;-82
2023/10/21 14:23:35;;;;;;;9.07;5.65;;;;;;;;;;5016942;28;20173;-83
2023/10/21 14:26:01;;;;;;;8.43;5.50;;;;;;;;;;5016346;28;20033;-84
2023/10/21 14:28:28;;;;;;;7.18;5.60;;;;;;;;;;5020223;28;20045;-84
2023/10/21 14:30:59;;;;;;;8.82;6.57;;;;;;;;;;5029392;28;20475;-85
2023/10/21 14:33:30;;;;;;;8.65;5.43;;;;;;;;;;5005370;28;20022;-84
2023/10/21 14:35:57;;;;;;;7.80;5.95;;;;;;;;;;5014928;28;20026;-84
2023/10/21 14:38:26;;;;;;;8.95;6.10;;;;;;;;;;5016029;28;20376;-84
2023/10/21 14:40:53;;;;;;;7.55;6.50;;;;;;;;;;5019634;28;20053;-83
2023/10/21 14:43:19;;;;;;;8.57;6.47;;;;;;;;;;5020784;28;20554;-86
2023/10/21 14:45:46;;;;;;;11.93;6.82;;;;;;;;;;5019748;28;20034;-85
2023/10/21 14:48:13;;;;;;;9.82;6.57;;;;;;;;;;5018481;28;20026;-84
2023/10/21 14:50:43;;;;;;;9.35;6.28;;;;;;;;;;5013884;28;20029;-87
2023/10/21 14:53:09;;;;;;;8.73;6.45;;;;;;;;;;5013230;28;20406;-83
2023/10/21 14:55:37;;;;;;;9.82;5.90;;;;;;;;;;5021842;28;20378;-85
2023/10/21 14:58:04;;;;;;;9.57;5.85;;;;;;;;;;5013604;28;20018;-84
2023/10/21 15:00:31;;;;;;;12.02;6.80;;;;;;;;;;4995248;28;20033;-83
2023/10/21 15:02:58;;;;;;;9.05;5.72;;;;;;;;;;5012849;28;20040;-83
2023/10/21 15:05:24;;;;;;;9.45;7.25;;;;;;;;;;5012888;28;20022;-85
2023/10/21 15:07:50;;;;;;;9.75;6.53;;;;;;;;;;5007046;28;20029;-85
2023/10/21 15:10:17;;;;;;;16.15;6.93;;;;;;;;;;4999979;28;20061;-84
2023/10/21 15:12:49;;;;;;;14.25;7.70;;;;;;;;;;5016157;28;20121;-84
2023/10/21 15:15:16;;;;;;;9.45;6.65;;;;;;;;;;5020700;28;20056;-86
2023/10/21 15:17:44;;;;;;;8.10;7.28;;;;;;;;;;5018323;28;20064;-85
2023/10/21 15:20:11;;;;;;;11.30;7.78;;;;;;;;;;5024558;28;20022;-84
2023/10/21 15:22:37;;;;;;;10.23;6.32;;;;;;;;;;4998855;28;20399;-84